^^
Grace C. Lehan Memorial Weather Station Historical Data
Daily Summary for January 14, 2022 Units:  Both    English   Metric
Daily Weekly Monthly Yearly
  High: Low: Average:
Temperature: 42.9 °F /  6.1 °C 16 °F /  -8.9 °C 33.9 °F /  1.1 °C
Dew Point: 33.4 °F /  0.8 °C -1.7 °F /  -18.7 °C 24.1 °F /  -4.4 °C
Humidity: 81.8% 41% 68%
Wind Speed: 15.3mph /  24.6km/h - 5.1mph /  8.2km/h
Wind Gust: 26mph /  41.8km/h - -
Wind- - WNW
Pressure: 29.92 in /  1013.1 hPa 29.70 in /  1005.6 hPa -
Precipitation: 0.00 in /  0 mm    
 
 
Tabular Data for January 14, 2022
Time Temperature Dew Point Pressure Wind Wind Speed Wind Gust Humidity Rainfall Rate (Hourly) solar
00:04 34.1 °F /  1.2 °C 29.1 °F /  -1.6 °C 29.85in /  1010.7hPa Calm   2mph /  3.2km/h 81.8% 0.00in /  0mm 0 W/m2
00:09 34.2 °F /  1.2 °C 28.9 °F /  -1.7 °C 29.85in /  1010.7hPa SSW 0.2mph /  0.3km/h 3mph /  4.8km/h 81% 0.00in /  0mm 0 W/m2
00:14 34.2 °F /  1.2 °C 29 °F /  -1.7 °C 29.85in /  1010.7hPa SSW 0.7mph /  1.1km/h 3mph /  4.8km/h 81% 0.00in /  0mm 0 W/m2
00:19 34.3 °F /  1.3 °C 28.9 °F /  -1.7 °C 29.85in /  1010.7hPa SSW 0.7mph /  1.1km/h 3mph /  4.8km/h 80.1% 0.00in /  0mm 0 W/m2
00:24 34.4 °F /  1.3 °C 28.9 °F /  -1.7 °C 29.85in /  1010.7hPa Calm   3mph /  4.8km/h 80% 0.00in /  0mm 0 W/m2
00:29 34.5 °F /  1.4 °C 29 °F /  -1.7 °C 29.85in /  1010.7hPa Calm   3mph /  4.8km/h 80% 0.00in /  0mm 0 W/m2
00:34 34.6 °F /  1.4 °C 28.8 °F /  -1.8 °C 29.85in /  1010.7hPa Calm   3mph /  4.8km/h 79.3% 0.00in /  0mm 0 W/m2
00:39 34.6 °F /  1.4 °C 28.8 °F /  -1.8 °C 29.84in /  1010.4hPa SSW 0.7mph /  1.1km/h 3mph /  4.8km/h 79% 0.00in /  0mm 0 W/m2
00:44 34.6 °F /  1.4 °C 28.8 °F /  -1.8 °C 29.84in /  1010.4hPa SW 1.1mph /  1.8km/h 4mph /  6.4km/h 79% 0.00in /  0mm 0 W/m2
00:49 34.6 °F /  1.4 °C 28.8 °F /  -1.8 °C 29.84in /  1010.4hPa WSW 0.3mph /  0.5km/h 4mph /  6.4km/h 79% 0.00in /  0mm 0 W/m2
00:54 34.6 °F /  1.4 °C 28.8 °F /  -1.8 °C 29.84in /  1010.4hPa WSW 0.6mph /  1km/h 4mph /  6.4km/h 79.2% 0.00in /  0mm 0 W/m2
00:59 34.7 °F /  1.5 °C 29 °F /  -1.7 °C 29.84in /  1010.4hPa WSW 0.9mph /  1.4km/h 4mph /  6.4km/h 79.5% 0.00in /  0mm 0 W/m2
01:04 34.7 °F /  1.5 °C 29 °F /  -1.7 °C 29.84in /  1010.4hPa WSW 0.1mph /  0.2km/h 4mph /  6.4km/h 79.5% 0.00in /  0mm 0 W/m2
01:09 34.7 °F /  1.5 °C 28.9 °F /  -1.7 °C 29.84in /  1010.4hPa WSW 0.4mph /  0.6km/h 3mph /  4.8km/h 79% 0.00in /  0mm 0 W/m2
01:14 34.8 °F /  1.6 °C 29 °F /  -1.7 °C 29.84in /  1010.4hPa WSW 0.1mph /  0.2km/h 3mph /  4.8km/h 79% 0.00in /  0mm 0 W/m2
01:19 34.8 °F /  1.6 °C 29 °F /  -1.7 °C 29.84in /  1010.4hPa WSW 1mph /  1.6km/h 4mph /  6.4km/h 79% 0.00in /  0mm 0 W/m2
01:24 34.9 °F /  1.6 °C 29.1 °F /  -1.6 °C 29.84in /  1010.4hPa WNW 0.5mph /  0.8km/h 4mph /  6.4km/h 79% 0.00in /  0mm 0 W/m2
01:29 35 °F /  1.7 °C 29.1 °F /  -1.6 °C 29.83in /  1010hPa NW 2.4mph /  3.9km/h 5mph /  8km/h 79% 0.00in /  0mm 0 W/m2
01:34 35 °F /  1.7 °C 29.2 °F /  -1.6 °C 29.83in /  1010hPa NNW 2.1mph /  3.4km/h 6mph /  9.7km/h 79% 0.00in /  0mm 0 W/m2
01:39 35 °F /  1.7 °C 29 °F /  -1.7 °C 29.83in /  1010hPa NNW 2.4mph /  3.9km/h 6mph /  9.7km/h 78.6% 0.00in /  0mm 0 W/m2
01:44 35.1 °F /  1.7 °C 28.9 °F /  -1.7 °C 29.83in /  1010hPa NNW 2.5mph /  4km/h 6mph /  9.7km/h 78% 0.00in /  0mm 0 W/m2
01:49 35.1 °F /  1.7 °C 29 °F /  -1.7 °C 29.83in /  1010hPa NNW 1.1mph /  1.8km/h 6mph /  9.7km/h 78.2% 0.00in /  0mm 0 W/m2
01:54 35.1 °F /  1.7 °C 29.1 °F /  -1.6 °C 29.83in /  1010hPa NNW 0.5mph /  0.8km/h 6mph /  9.7km/h 78.3% 0.00in /  0mm 0 W/m2
01:59 35.2 °F /  1.8 °C 29.1 °F /  -1.6 °C 29.83in /  1010hPa NNW 0.4mph /  0.6km/h 6mph /  9.7km/h 78.4% 0.00in /  0mm 0 W/m2
02:04 35.2 °F /  1.8 °C 29.2 °F /  -1.6 °C 29.83in /  1010hPa NNW 1mph /  1.6km/h 6mph /  9.7km/h 78.4% 0.00in /  0mm 0 W/m2
02:09 35.3 °F /  1.8 °C 29.1 °F /  -1.6 °C 29.83in /  1010hPa NNW 1.4mph /  2.3km/h 5mph /  8km/h 78% 0.00in /  0mm 0 W/m2
02:14 35.5 °F /  1.9 °C 29.3 °F /  -1.5 °C 29.83in /  1010hPa NNW 0.4mph /  0.6km/h 5mph /  8km/h 78% 0.00in /  0mm 0 W/m2
02:19 35.5 °F /  1.9 °C 29.4 °F /  -1.4 °C 29.83in /  1010hPa NNW 0.6mph /  1km/h 5mph /  8km/h 78% 0.00in /  0mm 0 W/m2
02:24 35.6 °F /  2 °C 29.5 °F /  -1.4 °C 29.83in /  1010hPa North 1.7mph /  2.7km/h 5mph /  8km/h 77.9% 0.00in /  0mm 0 W/m2
02:29 35.7 °F /  2.1 °C 29.2 °F /  -1.6 °C 29.83in /  1010hPa North 1.6mph /  2.6km/h 5mph /  8km/h 77% 0.00in /  0mm 0 W/m2
02:34 35.8 °F /  2.1 °C 29.3 °F /  -1.5 °C 29.83in /  1010hPa NNE 0.5mph /  0.8km/h 5mph /  8km/h 77% 0.00in /  0mm 0 W/m2
02:39 35.8 °F /  2.1 °C 29.3 °F /  -1.5 °C 29.82in /  1009.7hPa NNE 0.5mph /  0.8km/h 4mph /  6.4km/h 77% 0.00in /  0mm 0 W/m2
02:44 35.7 °F /  2.1 °C 29.2 °F /  -1.6 °C 29.83in /  1010hPa NNE 0.2mph /  0.3km/h 4mph /  6.4km/h 77% 0.00in /  0mm 0 W/m2
02:49 35.7 °F /  2.1 °C 29.3 °F /  -1.5 °C 29.83in /  1010hPa NNE 2.1mph /  3.4km/h 5mph /  8km/h 77.4% 0.00in /  0mm 0 W/m2
02:54 35.7 °F /  2.1 °C 29.5 °F /  -1.4 °C 29.83in /  1010hPa NNE 1.2mph /  1.9km/h 5mph /  8km/h 78% 0.00in /  0mm 0 W/m2
02:59 35.6 °F /  2 °C 29.4 °F /  -1.4 °C 29.83in /  1010hPa North 1.8mph /  2.9km/h 5mph /  8km/h 78% 0.00in /  0mm 0 W/m2
03:04 35.6 °F /  2 °C 29.4 °F /  -1.4 °C 29.83in /  1010hPa North 1mph /  1.6km/h 5mph /  8km/h 78% 0.00in /  0mm 0 W/m2
03:09 35.6 °F /  2 °C 29.4 °F /  -1.4 °C 29.83in /  1010hPa North 1.2mph /  1.9km/h 5mph /  8km/h 78% 0.00in /  0mm 0 W/m2
03:14 35.6 °F /  2 °C 29.4 °F /  -1.4 °C 29.82in /  1009.7hPa North 1.5mph /  2.4km/h 5mph /  8km/h 78% 0.00in /  0mm 0 W/m2
03:19 35.5 °F /  1.9 °C 29.3 °F /  -1.5 °C 29.82in /  1009.7hPa North 2.8mph /  4.5km/h 6mph /  9.7km/h 78% 0.00in /  0mm 0 W/m2
03:24 35.5 °F /  1.9 °C 29.3 °F /  -1.5 °C 29.82in /  1009.7hPa NNW 0.6mph /  1km/h 6mph /  9.7km/h 78% 0.00in /  0mm 0 W/m2
03:29 35.4 °F /  1.9 °C 29.3 °F /  -1.5 °C 29.82in /  1009.7hPa NNW 1.3mph /  2.1km/h 6mph /  9.7km/h 78% 0.00in /  0mm 0 W/m2
03:34 35.3 °F /  1.8 °C 29.2 °F /  -1.6 °C 29.81in /  1009.4hPa NNW 0.9mph /  1.4km/h 6mph /  9.7km/h 78% 0.00in /  0mm 0 W/m2
03:39 35.3 °F /  1.8 °C 29.1 °F /  -1.6 °C 29.82in /  1009.7hPa NNW 0.3mph /  0.5km/h 4mph /  6.4km/h 78% 0.00in /  0mm 0 W/m2
03:44 35.2 °F /  1.8 °C 29.1 °F /  -1.6 °C 29.81in /  1009.4hPa Calm   4mph /  6.4km/h 78% 0.00in /  0mm 0 W/m2
03:49 35.2 °F /  1.8 °C 29.2 °F /  -1.6 °C 29.81in /  1009.4hPa NNW 0.7mph /  1.1km/h 4mph /  6.4km/h 78.4% 0.00in /  0mm 0 W/m2
03:54 35.2 °F /  1.8 °C 29.3 °F /  -1.5 °C 29.81in /  1009.4hPa NNW 0.6mph /  1km/h 6mph /  9.7km/h 79% 0.00in /  0mm 0 W/m2
03:59 35.1 °F /  1.7 °C 29.3 °F /  -1.5 °C 29.81in /  1009.4hPa NW 1.5mph /  2.4km/h 6mph /  9.7km/h 79% 0.00in /  0mm 0 W/m2
04:00 35.1 °F /  1.7 °C 29.3 °F /  -1.5 °C 29.80in /  1009hPa NNW 3mph /  4.8km/h 6mph /  9.7km/h 79% 0.00in /  0mm 0 W/m2
04:09 35.1 °F /  1.7 °C 29.2 °F /  -1.6 °C 29.80in /  1009hPa NNW 2.1mph /  3.4km/h 6mph /  9.7km/h 79% 0.00in /  0mm 0 W/m2
04:14 35 °F /  1.7 °C 29.2 °F /  -1.6 °C 29.80in /  1009hPa NNW 1.7mph /  2.7km/h 6mph /  9.7km/h 79% 0.00in /  0mm 0 W/m2
04:19 35 °F /  1.7 °C 29.3 °F /  -1.5 °C 29.80in /  1009hPa NNW 2.2mph /  3.5km/h 6mph /  9.7km/h 79.5% 0.00in /  0mm 0 W/m2
04:24 35 °F /  1.7 °C 29.5 °F /  -1.4 °C 29.80in /  1009hPa North 1.5mph /  2.4km/h 6mph /  9.7km/h 80% 0.00in /  0mm 0 W/m2
04:29 35 °F /  1.7 °C 29.5 °F /  -1.4 °C 29.80in /  1009hPa NNW 1.7mph /  2.7km/h 6mph /  9.7km/h 80% 0.00in /  0mm 0 W/m2
04:34 35 °F /  1.7 °C 29.4 °F /  -1.4 °C 29.80in /  1009hPa NNW 1.5mph /  2.4km/h 6mph /  9.7km/h 80% 0.00in /  0mm 0 W/m2
04:39 34.9 °F /  1.6 °C 29.4 °F /  -1.4 °C 29.80in /  1009hPa NNW 1.3mph /  2.1km/h 5mph /  8km/h 80% 0.00in /  0mm 0 W/m2
04:44 34.9 °F /  1.6 °C 29.4 °F /  -1.4 °C 29.80in /  1009hPa NNW 0.9mph /  1.4km/h 5mph /  8km/h 80% 0.00in /  0mm 0 W/m2
04:49 34.9 °F /  1.6 °C 29.5 °F /  -1.4 °C 29.80in /  1009hPa NNW 2.2mph /  3.5km/h 7mph /  11.3km/h 80.3% 0.00in /  0mm 0 W/m2
04:54 34.9 °F /  1.6 °C 29.7 °F /  -1.3 °C 29.80in /  1009hPa NNW 2.5mph /  4km/h 7mph /  11.3km/h 81% 0.00in /  0mm 0 W/m2
04:59 34.9 °F /  1.6 °C 29.7 °F /  -1.3 °C 29.80in /  1009hPa NNW 3mph /  4.8km/h 7mph /  11.3km/h 81% 0.00in /  0mm 0 W/m2
05:04 34.9 °F /  1.6 °C 29.4 °F /  -1.4 °C 29.80in /  1009hPa NNW 3.5mph /  5.6km/h 10mph /  16.1km/h 80.1% 0.00in /  0mm 0 W/m2
05:09 34.8 °F /  1.6 °C 29.3 °F /  -1.5 °C 29.80in /  1009hPa NNW 2.4mph /  3.9km/h 10mph /  16.1km/h 80% 0.00in /  0mm 0 W/m2
05:14 34.8 °F /  1.6 °C 29.2 °F /  -1.6 °C 29.79in /  1008.7hPa North 2.1mph /  3.4km/h 10mph /  16.1km/h 79.8% 0.00in /  0mm 0 W/m2
05:19 34.8 °F /  1.6 °C 29.2 °F /  -1.6 °C 29.79in /  1008.7hPa North 0.6mph /  1km/h 10mph /  16.1km/h 79.9% 0.00in /  0mm 0 W/m2
05:24 34.7 °F /  1.5 °C 29 °F /  -1.7 °C 29.79in /  1008.7hPa North 1.7mph /  2.7km/h 10mph /  16.1km/h 79.5% 0.00in /  0mm 0 W/m2
05:29 34.6 °F /  1.4 °C 28.9 °F /  -1.7 °C 29.79in /  1008.7hPa North 1.9mph /  3.1km/h 10mph /  16.1km/h 79.5% 0.00in /  0mm 0 W/m2
05:34 34.6 °F /  1.4 °C 28.7 °F /  -1.8 °C 29.79in /  1008.7hPa North 0.5mph /  0.8km/h 10mph /  16.1km/h 79% 0.00in /  0mm 0 W/m2
05:39 34.5 °F /  1.4 °C 28.6 °F /  -1.9 °C 29.79in /  1008.7hPa North 0.9mph /  1.4km/h 4mph /  6.4km/h 79% 0.00in /  0mm 0 W/m2
05:44 34.4 °F /  1.3 °C 28.9 °F /  -1.7 °C 29.79in /  1008.7hPa North 0.3mph /  0.5km/h 4mph /  6.4km/h 79.9% 0.00in /  0mm 0 W/m2
05:49 34.4 °F /  1.3 °C 28.8 °F /  -1.8 °C 29.79in /  1008.7hPa North 0.2mph /  0.3km/h 4mph /  6.4km/h 80% 0.00in /  0mm 0 W/m2
05:54 34.3 °F /  1.3 °C 28.8 °F /  -1.8 °C 29.79in /  1008.7hPa North 0.7mph /  1.1km/h 5mph /  8km/h 80% 0.00in /  0mm 0 W/m2
05:59 34.2 °F /  1.2 °C 28.7 °F /  -1.8 °C 29.79in /  1008.7hPa Calm   5mph /  8km/h 80% 0.00in /  0mm 0 W/m2
06:04 34.2 °F /  1.2 °C 28.7 °F /  -1.8 °C 29.79in /  1008.7hPa North 1.8mph /  2.9km/h 7mph /  11.3km/h 80% 0.00in /  0mm 0 W/m2
06:09 34.1 °F /  1.2 °C 28.6 °F /  -1.9 °C 29.79in /  1008.7hPa North 1.2mph /  1.9km/h 7mph /  11.3km/h 80% 0.00in /  0mm 0 W/m2
06:14 34.1 °F /  1.2 °C 28.6 °F /  -1.9 °C 29.79in /  1008.7hPa North 0.9mph /  1.4km/h 7mph /  11.3km/h 80% 0.00in /  0mm 0 W/m2
06:18 34 °F /  1.1 °C 28.5 °F /  -1.9 °C 29.80in /  1009hPa North 0.3mph /  0.5km/h 7mph /  11.3km/h 80% 0.00in /  0mm 0 W/m2
06:30 33.8 °F /  1 °C 28.3 °F /  -2.1 °C 29.79in /  1008.7hPa North 1mph /  1.6km/h 7mph /  11.3km/h 80% 0.00in /  0mm 0 W/m2
07:00 33.5 °F /  0.8 °C 28.3 °F /  -2.1 °C 29.79in /  1008.7hPa North 1mph /  1.6km/h 7mph /  11.3km/h 81% 0.00in /  0mm 0 W/m2
07:30 33.5 °F /  0.8 °C 28.3 °F /  -2.1 °C 29.79in /  1008.7hPa NNW 2mph /  3.2km/h 7mph /  11.3km/h 81% 0.00in /  0mm 1 W/m2
08:04 34.1 °F /  1.2 °C 28.9 °F /  -1.7 °C 29.79in /  1008.7hPa NNW 1.8mph /  2.9km/h 7mph /  11.3km/h 81% 0.00in /  0mm 37 W/m2
08:09 34.3 °F /  1.3 °C 29.1 °F /  -1.6 °C 29.79in /  1008.7hPa North 3.3mph /  5.3km/h 7mph /  11.3km/h 81% 0.00in /  0mm 40 W/m2
08:14 34.4 °F /  1.3 °C 29.1 °F /  -1.6 °C 29.79in /  1008.7hPa NNW 2.3mph /  3.7km/h 7mph /  11.3km/h 81% 0.00in /  0mm 44 W/m2
08:19 34.5 °F /  1.4 °C 29.2 °F /  -1.6 °C 29.79in /  1008.7hPa NNW 1.7mph /  2.7km/h 7mph /  11.3km/h 80.7% 0.00in /  0mm 47 W/m2
08:24 34.7 °F /  1.5 °C 29.2 °F /  -1.6 °C 29.79in /  1008.7hPa North 2.4mph /  3.9km/h 7mph /  11.3km/h 80.3% 0.00in /  0mm 54 W/m2
08:29 34.8 °F /  1.6 °C 29.3 °F /  -1.5 °C 29.79in /  1008.7hPa NNW 2.4mph /  3.9km/h 7mph /  11.3km/h 80% 0.00in /  0mm 56 W/m2
08:34 35 °F /  1.7 °C 29.4 °F /  -1.4 °C 29.79in /  1008.7hPa NNW 2.2mph /  3.5km/h 11mph /  17.7km/h 80% 0.00in /  0mm 56 W/m2
08:39 35.1 °F /  1.7 °C 29.6 °F /  -1.3 °C 29.79in /  1008.7hPa NNW 2.6mph /  4.2km/h 11mph /  17.7km/h 80% 0.00in /  0mm 62 W/m2
08:44 35.3 °F /  1.8 °C 29.5 °F /  -1.4 °C 29.79in /  1008.7hPa NNW 2.8mph /  4.5km/h 11mph /  17.7km/h 79.3% 0.00in /  0mm 69 W/m2
08:49 35.4 °F /  1.9 °C 29.5 °F /  -1.4 °C 29.79in /  1008.7hPa NNW 2.2mph /  3.5km/h 11mph /  17.7km/h 79% 0.00in /  0mm 76 W/m2
08:54 35.5 °F /  1.9 °C 29.6 °F /  -1.3 °C 29.79in /  1008.7hPa NNW 2.3mph /  3.7km/h 11mph /  17.7km/h 79% 0.00in /  0mm 79 W/m2
08:59 35.6 °F /  2 °C 29.8 °F /  -1.2 °C 29.80in /  1009hPa North 1.3mph /  2.1km/h 11mph /  17.7km/h 79% 0.00in /  0mm 90 W/m2
09:04 35.7 °F /  2.1 °C 29.8 °F /  -1.2 °C 29.80in /  1009hPa NNW 1.4mph /  2.3km/h 11mph /  17.7km/h 79% 0.00in /  0mm 98 W/m2
09:09 35.9 °F /  2.2 °C 30 °F /  -1.1 °C 29.80in /  1009hPa North 2.8mph /  4.5km/h 8mph /  12.9km/h 78.9% 0.00in /  0mm 107 W/m2
09:14 36 °F /  2.2 °C 29.8 °F /  -1.2 °C 29.80in /  1009hPa North 2mph /  3.2km/h 10mph /  16.1km/h 78% 0.00in /  0mm 109 W/m2
09:19 36.1 °F /  2.3 °C 30 °F /  -1.1 °C 29.80in /  1009hPa NNW 2.1mph /  3.4km/h 10mph /  16.1km/h 78% 0.00in /  0mm 113 W/m2
09:24 36.3 °F /  2.4 °C 30 °F /  -1.1 °C 29.80in /  1009hPa North 2.8mph /  4.5km/h 10mph /  16.1km/h 77.6% 0.00in /  0mm 116 W/m2
09:29 36.5 °F /  2.5 °C 30 °F /  -1.1 °C 29.80in /  1009hPa North 3.9mph /  6.3km/h 11mph /  17.7km/h 77% 0.00in /  0mm 120 W/m2
09:34 36.7 °F /  2.6 °C 30.2 °F /  -1 °C 29.80in /  1009hPa NNW 4mph /  6.4km/h 11mph /  17.7km/h 77% 0.00in /  0mm 128 W/m2
09:39 36.9 °F /  2.7 °C 30.3 °F /  -0.9 °C 29.80in /  1009hPa North 3mph /  4.8km/h 9mph /  14.5km/h 76.8% 0.00in /  0mm 132 W/m2
09:44 37.1 °F /  2.8 °C 30.3 °F /  -0.9 °C 29.80in /  1009hPa North 3.7mph /  6km/h 12mph /  19.3km/h 76% 0.00in /  0mm 142 W/m2
09:49 37.3 °F /  2.9 °C 30.3 °F /  -0.9 °C 29.80in /  1009hPa NNE 2.1mph /  3.4km/h 12mph /  19.3km/h 75.5% 0.00in /  0mm 146 W/m2
09:54 37.5 °F /  3.1 °C 30.3 °F /  -0.9 °C 29.79in /  1008.7hPa NE 2.1mph /  3.4km/h 12mph /  19.3km/h 75% 0.00in /  0mm 146 W/m2
09:59 37.7 °F /  3.2 °C 30.5 °F /  -0.8 °C 29.79in /  1008.7hPa NNW 3mph /  4.8km/h 12mph /  19.3km/h 75% 0.00in /  0mm 149 W/m2
10:04 37.9 °F /  3.3 °C 30.5 °F /  -0.8 °C 29.79in /  1008.7hPa North 3.3mph /  5.3km/h 12mph /  19.3km/h 74.4% 0.00in /  0mm 151 W/m2
10:09 38.1 °F /  3.4 °C 30.6 °F /  -0.8 °C 29.79in /  1008.7hPa NNW 4mph /  6.4km/h 13mph /  20.9km/h 74% 0.00in /  0mm 148 W/m2
10:14 38.3 °F /  3.5 °C 30.7 °F /  -0.7 °C 29.79in /  1008.7hPa NNW 4.7mph /  7.6km/h 13mph /  20.9km/h 74% 0.00in /  0mm 156 W/m2
10:19 38.4 °F /  3.6 °C 30.8 °F /  -0.7 °C 29.79in /  1008.7hPa NNW 4.1mph /  6.6km/h 13mph /  20.9km/h 73.8% 0.00in /  0mm 178 W/m2
10:24 38.6 °F /  3.7 °C 31 °F /  -0.6 °C 29.79in /  1008.7hPa North 3.4mph /  5.5km/h 13mph /  20.9km/h 73.7% 0.00in /  0mm 181 W/m2
10:29 38.8 °F /  3.8 °C 30.9 °F /  -0.6 °C 29.79in /  1008.7hPa North 3.6mph /  5.8km/h 13mph /  20.9km/h 73% 0.00in /  0mm 185 W/m2
10:34 39.1 °F /  3.9 °C 31.2 °F /  -0.4 °C 29.79in /  1008.7hPa North 2.8mph /  4.5km/h 13mph /  20.9km/h 73% 0.00in /  0mm 209 W/m2
10:39 39.3 °F /  4.1 °C 31.2 °F /  -0.4 °C 29.79in /  1008.7hPa NNE 3.4mph /  5.5km/h 10mph /  16.1km/h 72.4% 0.00in /  0mm 232 W/m2
10:44 39.6 °F /  4.2 °C 31.3 °F /  -0.4 °C 29.78in /  1008.4hPa ENE 1.7mph /  2.7km/h 10mph /  16.1km/h 72% 0.00in /  0mm 230 W/m2
10:49 39.8 °F /  4.3 °C 31.5 °F /  -0.3 °C 29.78in /  1008.4hPa NNE 3.1mph /  5km/h 11mph /  17.7km/h 72% 0.00in /  0mm 227 W/m2
10:54 40.1 °F /  4.5 °C 31.8 °F /  -0.1 °C 29.78in /  1008.4hPa NNE 3.1mph /  5km/h 12mph /  19.3km/h 71.9% 0.00in /  0mm 244 W/m2
10:59 40.4 °F /  4.7 °C 31.8 °F /  -0.1 °C 29.78in /  1008.4hPa North 3.6mph /  5.8km/h 17mph /  27.4km/h 71.1% 0.00in /  0mm 234 W/m2
11:04 40.6 °F /  4.8 °C 31.9 °F /  -0.1 °C 29.78in /  1008.4hPa North 4.6mph /  7.4km/h 17mph /  27.4km/h 71% 0.00in /  0mm 229 W/m2
11:09 40.8 °F /  4.9 °C 32.1 °F /  0.1 °C 29.77in /  1008hPa North 5.4mph /  8.7km/h 20mph /  32.2km/h 71% 0.00in /  0mm 197 W/m2
11:14 40.9 °F /  4.9 °C 32.2 °F /  0.1 °C 29.77in /  1008hPa NNE 5mph /  8km/h 20mph /  32.2km/h 70.8% 0.00in /  0mm 200 W/m2
11:19 41 °F /  5 °C 32.5 °F /  0.3 °C 29.76in /  1007.7hPa North 4mph /  6.4km/h 20mph /  32.2km/h 71.7% 0.00in /  0mm 221 W/m2
11:24 41.1 °F /  5.1 °C 32.4 °F /  0.2 °C 29.76in /  1007.7hPa North 8mph /  12.9km/h 20mph /  32.2km/h 71% 0.00in /  0mm 216 W/m2
11:29 41.2 °F /  5.1 °C 32.5 °F /  0.3 °C 29.76in /  1007.7hPa North 8.9mph /  14.3km/h 21mph /  33.8km/h 71% 0.00in /  0mm 202 W/m2
11:34 41.1 °F /  5.1 °C 32.4 °F /  0.2 °C 29.76in /  1007.7hPa North 7.6mph /  12.2km/h 21mph /  33.8km/h 71% 0.00in /  0mm 207 W/m2
11:39 41.2 °F /  5.1 °C 32.5 °F /  0.3 °C 29.76in /  1007.7hPa North 7mph /  11.3km/h 24mph /  38.6km/h 71% 0.00in /  0mm 211 W/m2
11:44 41.1 °F /  5.1 °C 32.5 °F /  0.3 °C 29.76in /  1007.7hPa North 7.4mph /  11.9km/h 24mph /  38.6km/h 71% 0.00in /  0mm 199 W/m2
11:49 41 °F /  5 °C 32.3 °F /  0.2 °C 29.76in /  1007.7hPa North 6.6mph /  10.6km/h 24mph /  38.6km/h 71% 0.00in /  0mm 199 W/m2
11:54 41 °F /  5 °C 32.3 °F /  0.2 °C 29.76in /  1007.7hPa North 7.3mph /  11.7km/h 24mph /  38.6km/h 71% 0.00in /  0mm 193 W/m2
11:59 41 °F /  5 °C 32.3 °F /  0.2 °C 29.75in /  1007.3hPa NNW 4.9mph /  7.9km/h 24mph /  38.6km/h 71% 0.00in /  0mm 193 W/m2
12:04 41 °F /  5 °C 32.5 °F /  0.3 °C 29.75in /  1007.3hPa NNW 4mph /  6.4km/h 6mph /  9.7km/h 71.5% 0.00in /  0mm 178 W/m2
12:09 41 °F /  5 °C 32.6 °F /  0.3 °C 29.75in /  1007.3hPa North 6.9mph /  11.1km/h 17mph /  27.4km/h 71.6% 0.00in /  0mm 207 W/m2
12:14 41.1 °F /  5.1 °C 32.8 °F /  0.4 °C 29.74in /  1007hPa NNW 4.2mph /  6.8km/h 17mph /  27.4km/h 72% 0.00in /  0mm 207 W/m2
12:19 41.3 °F /  5.2 °C 32.7 °F /  0.4 °C 29.74in /  1007hPa North 5.3mph /  8.5km/h 20mph /  32.2km/h 71.2% 0.00in /  0mm 227 W/m2
12:24 41.5 °F /  5.3 °C 32.8 °F /  0.4 °C 29.74in /  1007hPa North 4.8mph /  7.7km/h 20mph /  32.2km/h 71% 0.00in /  0mm 230 W/m2
12:29 41.7 °F /  5.4 °C 33 °F /  0.6 °C 29.74in /  1007hPa NNW 8.1mph /  13km/h 20mph /  32.2km/h 71% 0.00in /  0mm 230 W/m2
12:34 41.8 °F /  5.4 °C 33.1 °F /  0.6 °C 29.74in /  1007hPa North 6.2mph /  10km/h 21mph /  33.8km/h 71% 0.00in /  0mm 241 W/m2
12:39 41.9 °F /  5.5 °C 33 °F /  0.6 °C 29.74in /  1007hPa NNW 3.8mph /  6.1km/h 21mph /  33.8km/h 70.3% 0.00in /  0mm 186 W/m2
12:44 42.1 °F /  5.6 °C 33.2 °F /  0.7 °C 29.73in /  1006.7hPa North 4.9mph /  7.9km/h 21mph /  33.8km/h 70.4% 0.00in /  0mm 199 W/m2
12:49 42.3 °F /  5.7 °C 33.2 °F /  0.7 °C 29.73in /  1006.7hPa NNW 6.7mph /  10.8km/h 21mph /  33.8km/h 70% 0.00in /  0mm 181 W/m2
12:54 42.4 °F /  5.8 °C 33.3 °F /  0.7 °C 29.73in /  1006.7hPa NNW 3.9mph /  6.3km/h 21mph /  33.8km/h 70% 0.00in /  0mm 202 W/m2
12:59 42.5 °F /  5.8 °C 33.4 °F /  0.8 °C 29.73in /  1006.7hPa North 3.1mph /  5km/h 21mph /  33.8km/h 70% 0.00in /  0mm 199 W/m2
13:04 42.7 °F /  5.9 °C 33.3 °F /  0.7 °C 29.73in /  1006.7hPa NNW 4.9mph /  7.9km/h 21mph /  33.8km/h 69.3% 0.00in /  0mm 179 W/m2
13:09 42.7 °F /  5.9 °C 33.3 °F /  0.7 °C 29.72in /  1006.3hPa North 2.7mph /  4.3km/h 16mph /  25.7km/h 69% 0.00in /  0mm 169 W/m2
13:14 42.8 °F /  6 °C 33.4 °F /  0.8 °C 29.72in /  1006.3hPa NNW 4.2mph /  6.8km/h 16mph /  25.7km/h 69.1% 0.00in /  0mm 167 W/m2
13:19 42.9 °F /  6.1 °C 33.3 °F /  0.7 °C 29.72in /  1006.3hPa NNW 6.2mph /  10km/h 16mph /  25.7km/h 68.7% 0.00in /  0mm 171 W/m2
13:24 42.9 °F /  6.1 °C 33.1 °F /  0.6 °C 29.72in /  1006.3hPa NNW 6.8mph /  10.9km/h 17mph /  27.4km/h 68% 0.00in /  0mm 169 W/m2
13:29 42.8 °F /  6 °C 33 °F /  0.6 °C 29.71in /  1006hPa NNW 4.4mph /  7.1km/h 17mph /  27.4km/h 68% 0.00in /  0mm 220 W/m2
13:34 42.9 °F /  6.1 °C 32.8 °F /  0.4 °C 29.71in /  1006hPa NNW 5.9mph /  9.5km/h 17mph /  27.4km/h 67.2% 0.00in /  0mm 149 W/m2
13:39 42.8 °F /  6 °C 32.6 °F /  0.3 °C 29.71in /  1006hPa North 6.8mph /  10.9km/h 15mph /  24.1km/h 67% 0.00in /  0mm 135 W/m2
13:44 42.8 °F /  6 °C 32.6 °F /  0.3 °C 29.71in /  1006hPa North 5.1mph /  8.2km/h 21mph /  33.8km/h 67% 0.00in /  0mm 125 W/m2
13:49 42.7 °F /  5.9 °C 32.5 °F /  0.3 °C 29.71in /  1006hPa NNE 4.1mph /  6.6km/h 21mph /  33.8km/h 67% 0.00in /  0mm 118 W/m2
13:54 42.6 °F /  5.9 °C 32.4 °F /  0.2 °C 29.71in /  1006hPa North 5.1mph /  8.2km/h 21mph /  33.8km/h 67% 0.00in /  0mm 134 W/m2
13:59 42.5 °F /  5.8 °C 32.1 °F /  0.1 °C 29.71in /  1006hPa NNE 4.1mph /  6.6km/h 21mph /  33.8km/h 66.5% 0.00in /  0mm 148 W/m2
14:04 42.5 °F /  5.8 °C 32.2 °F /  0.1 °C 29.71in /  1006hPa North 5.3mph /  8.5km/h 21mph /  33.8km/h 66.6% 0.00in /  0mm 160 W/m2
14:09 42.4 °F /  5.8 °C 32.1 °F /  0.1 °C 29.71in /  1006hPa North 3.3mph /  5.3km/h 15mph /  24.1km/h 66.5% 0.00in /  0mm 204 W/m2
14:14 42.5 °F /  5.8 °C 32.2 °F /  0.1 °C 29.71in /  1006hPa North 4.9mph /  7.9km/h 15mph /  24.1km/h 66.6% 0.00in /  0mm 213 W/m2
14:19 42.5 °F /  5.8 °C 32 °F /  0 °C 29.71in /  1006hPa North 6.4mph /  10.3km/h 15mph /  24.1km/h 66% 0.00in /  0mm 165 W/m2
14:24 42.4 °F /  5.8 °C 31.9 °F /  -0.1 °C 29.71in /  1006hPa North 5.2mph /  8.4km/h 15mph /  24.1km/h 66% 0.00in /  0mm 148 W/m2
14:29 42.2 °F /  5.7 °C 31.7 °F /  -0.2 °C 29.71in /  1006hPa NNW 5.5mph /  8.9km/h 17mph /  27.4km/h 66% 0.00in /  0mm 120 W/m2
14:34 42 °F /  5.6 °C 31.8 °F /  -0.1 °C 29.71in /  1006hPa North 1.6mph /  2.6km/h 17mph /  27.4km/h 66.8% 0.00in /  0mm 109 W/m2
14:39 41.9 °F /  5.5 °C 31.8 °F /  -0.1 °C 29.71in /  1006hPa North 2.7mph /  4.3km/h 12mph /  19.3km/h 67% 0.00in /  0mm 86 W/m2
14:44 41.8 °F /  5.4 °C 31.4 °F /  -0.3 °C 29.71in /  1006hPa NNE 2.9mph /  4.7km/h 12mph /  19.3km/h 66.5% 0.00in /  0mm 86 W/m2
14:49 41.6 °F /  5.3 °C 31.5 °F /  -0.3 °C 29.71in /  1006hPa North 2.5mph /  4km/h 12mph /  19.3km/h 67% 0.00in /  0mm 84 W/m2
14:54 41.6 °F /  5.3 °C 31.5 °F /  -0.3 °C 29.71in /  1006hPa North 3mph /  4.8km/h 12mph /  19.3km/h 67% 0.00in /  0mm 84 W/m2
14:59 41.5 °F /  5.3 °C 31.4 °F /  -0.3 °C 29.71in /  1006hPa NNE 2.5mph /  4km/h 12mph /  19.3km/h 67% 0.00in /  0mm 79 W/m2
15:04 41.5 °F /  5.3 °C 31.4 °F /  -0.3 °C 29.70in /  1005.6hPa North 2.2mph /  3.5km/h 12mph /  19.3km/h 67% 0.00in /  0mm 79 W/m2
15:09 41.5 °F /  5.3 °C 31.4 °F /  -0.3 °C 29.71in /  1006hPa North 1.9mph /  3.1km/h 7mph /  11.3km/h 67% 0.00in /  0mm 76 W/m2
15:14 41.5 °F /  5.3 °C 31.3 °F /  -0.4 °C 29.72in /  1006.3hPa NW 6.3mph /  10.1km/h 16mph /  25.7km/h 67% 0.00in /  0mm 72 W/m2
15:19 41.5 °F /  5.3 °C 31 °F /  -0.6 °C 29.72in /  1006.3hPa NW 9.2mph /  14.8km/h 20mph /  32.2km/h 66% 0.00in /  0mm 67 W/m2
15:24 41.3 °F /  5.2 °C 30.4 °F /  -0.9 °C 29.71in /  1006hPa NNW 7mph /  11.3km/h 20mph /  32.2km/h 65% 0.00in /  0mm 63 W/m2
15:29 41.1 °F /  5.1 °C 30.3 °F /  -0.9 °C 29.72in /  1006.3hPa NNW 7mph /  11.3km/h 21mph /  33.8km/h 65.2% 0.00in /  0mm 60 W/m2
15:34 41 °F /  5 °C 30.2 °F /  -1 °C 29.72in /  1006.3hPa NW 7.3mph /  11.7km/h 21mph /  33.8km/h 65% 0.00in /  0mm 54 W/m2
15:39 40.8 °F /  4.9 °C 30 °F /  -1.1 °C 29.72in /  1006.3hPa NW 6.6mph /  10.6km/h 19mph /  30.6km/h 65% 0.00in /  0mm 49 W/m2
15:44 40.7 °F /  4.8 °C 29.8 °F /  -1.2 °C 29.72in /  1006.3hPa NNW 9.2mph /  14.8km/h 19mph /  30.6km/h 64.9% 0.00in /  0mm 46 W/m2
15:49 40.5 °F /  4.7 °C 29.3 °F /  -1.5 °C 29.73in /  1006.7hPa NW 8.1mph /  13km/h 22mph /  35.4km/h 64.1% 0.00in /  0mm 42 W/m2
15:54 40.3 °F /  4.6 °C 29.1 °F /  -1.6 °C 29.72in /  1006.3hPa NW 7.8mph /  12.6km/h 22mph /  35.4km/h 64% 0.00in /  0mm 39 W/m2
15:59 40.1 °F /  4.5 °C 28.9 °F /  -1.7 °C 29.72in /  1006.3hPa NW 7.7mph /  12.4km/h 22mph /  35.4km/h 64% 0.00in /  0mm 35 W/m2
16:00 40 °F /  4.4 °C 28.8 °F /  -1.8 °C 29.72in /  1006.3hPa NW 9mph /  14.5km/h 22mph /  35.4km/h 64% 0.00in /  0mm 33 W/m2
16:09 39.7 °F /  4.3 °C 28.5 °F /  -1.9 °C 29.72in /  1006.3hPa NNW 6mph /  9.7km/h 16mph /  25.7km/h 64% 0.00in /  0mm 30 W/m2
16:14 39.5 °F /  4.2 °C 28.4 °F /  -2 °C 29.72in /  1006.3hPa NW 5.7mph /  9.2km/h 18mph /  29km/h 64% 0.00in /  0mm 26 W/m2
16:19 39.2 °F /  4 °C 27.7 °F /  -2.4 °C 29.73in /  1006.7hPa NNW 8.5mph /  13.7km/h 20mph /  32.2km/h 63% 0.00in /  0mm 25 W/m2
16:24 38.9 °F /  3.8 °C 27.5 °F /  -2.5 °C 29.73in /  1006.7hPa NNW 6.8mph /  10.9km/h 20mph /  32.2km/h 63.2% 0.00in /  0mm 21 W/m2
16:29 38.5 °F /  3.6 °C 27.1 °F /  -2.7 °C 29.74in /  1007hPa NW 8.2mph /  13.2km/h 20mph /  32.2km/h 63.2% 0.00in /  0mm 16 W/m2
16:34 38.1 °F /  3.4 °C 26.7 °F /  -2.9 °C 29.74in /  1007hPa NNW 7.9mph /  12.7km/h 20mph /  32.2km/h 63% 0.00in /  0mm 12 W/m2
16:39 37.7 °F /  3.2 °C 26.2 °F /  -3.2 °C 29.74in /  1007hPa NW 8.1mph /  13km/h 17mph /  27.4km/h 63% 0.00in /  0mm 9 W/m2
16:44 37.2 °F /  2.9 °C 25.8 °F /  -3.4 °C 29.74in /  1007hPa NW 11.2mph /  18km/h 22mph /  35.4km/h 63% 0.00in /  0mm 7 W/m2
16:49 36.8 °F /  2.7 °C 25.5 °F /  -3.6 °C 29.74in /  1007hPa NNW 6.8mph /  10.9km/h 22mph /  35.4km/h 63.3% 0.00in /  0mm 5 W/m2
16:54 36.3 °F /  2.4 °C 25.3 °F /  -3.7 °C 29.75in /  1007.3hPa NNW 7.4mph /  11.9km/h 22mph /  35.4km/h 64% 0.00in /  0mm 0 W/m2
16:59 36 °F /  2.2 °C 25 °F /  -3.9 °C 29.75in /  1007.3hPa NNW 9mph /  14.5km/h 22mph /  35.4km/h 64% 0.00in /  0mm 0 W/m2
17:04 35.7 °F /  2.1 °C 24.7 °F /  -4.1 °C 29.75in /  1007.3hPa NW 6.4mph /  10.3km/h 22mph /  35.4km/h 64% 0.00in /  0mm 0 W/m2
17:09 35.4 °F /  1.9 °C 24.5 °F /  -4.2 °C 29.75in /  1007.3hPa NW 8.6mph /  13.8km/h 18mph /  29km/h 64% 0.00in /  0mm 0 W/m2
17:14 35.2 °F /  1.8 °C 24.6 °F /  -4.1 °C 29.75in /  1007.3hPa NW 6.4mph /  10.3km/h 18mph /  29km/h 65% 0.00in /  0mm 0 W/m2
17:19 35 °F /  1.7 °C 24.2 °F /  -4.3 °C 29.75in /  1007.3hPa NW 5mph /  8km/h 18mph /  29km/h 64.4% 0.00in /  0mm 0 W/m2
17:24 34.7 °F /  1.5 °C 24.2 °F /  -4.3 °C 29.75in /  1007.3hPa NW 7.8mph /  12.6km/h 18mph /  29km/h 65% 0.00in /  0mm 0 W/m2
17:29 34.5 °F /  1.4 °C 23.6 °F /  -4.7 °C 29.76in /  1007.7hPa NW 9.3mph /  15km/h 18mph /  29km/h 64% 0.00in /  0mm 0 W/m2
17:34 34.2 °F /  1.2 °C 23.3 °F /  -4.8 °C 29.76in /  1007.7hPa NW 9mph /  14.5km/h 22mph /  35.4km/h 64% 0.00in /  0mm 0 W/m2
17:39 33.9 °F /  1.1 °C 23 °F /  -5 °C 29.76in /  1007.7hPa NW 8.9mph /  14.3km/h 22mph /  35.4km/h 64% 0.00in /  0mm 0 W/m2
17:44 33.6 °F /  0.9 °C 22.5 °F /  -5.3 °C 29.77in /  1008hPa NW 10.7mph /  17.2km/h 22mph /  35.4km/h 63.4% 0.00in /  0mm 0 W/m2
17:49 33.4 °F /  0.8 °C 22.8 °F /  -5.1 °C 29.77in /  1008hPa NNW 6.3mph /  10.1km/h 22mph /  35.4km/h 64.6% 0.00in /  0mm 0 W/m2
17:54 33.2 °F /  0.7 °C 23.1 °F /  -4.9 °C 29.77in /  1008hPa NW 5.9mph /  9.5km/h 22mph /  35.4km/h 65.8% 0.00in /  0mm 0 W/m2
17:59 33.1 °F /  0.6 °C 22.9 °F /  -5.1 °C 29.77in /  1008hPa NNW 5.8mph /  9.3km/h 22mph /  35.4km/h 65.7% 0.00in /  0mm 0 W/m2
18:04 32.9 °F /  0.5 °C 22.8 °F /  -5.1 °C 29.77in /  1008hPa NNW 7.2mph /  11.6km/h 22mph /  35.4km/h 66% 0.00in /  0mm 0 W/m2
18:09 32.6 °F /  0.3 °C 22.3 °F /  -5.4 °C 29.78in /  1008.4hPa NW 10.2mph /  16.4km/h 21mph /  33.8km/h 65.2% 0.00in /  0mm 0 W/m2
18:14 32.3 °F /  0.2 °C 21.7 °F /  -5.7 °C 29.78in /  1008.4hPa NW 11.2mph /  18km/h 21mph /  33.8km/h 64.6% 0.00in /  0mm 0 W/m2
18:19 32 °F /  0 °C 21.2 °F /  -6 °C 29.78in /  1008.4hPa NW 8.8mph /  14.2km/h 21mph /  33.8km/h 64.1% 0.00in /  0mm 0 W/m2
18:24 31.7 °F /  -0.2 °C 20.6 °F /  -6.3 °C 29.78in /  1008.4hPa NW 9mph /  14.5km/h 21mph /  33.8km/h 63.3% 0.00in /  0mm 0 W/m2
18:29 31.4 °F /  -0.3 °C 20.1 °F /  -6.6 °C 29.79in /  1008.7hPa NW 6.1mph /  9.8km/h 21mph /  33.8km/h 62.5% 0.00in /  0mm 0 W/m2
18:34 31.2 °F /  -0.4 °C 19.8 °F /  -6.8 °C 29.79in /  1008.7hPa NW 7.2mph /  11.6km/h 21mph /  33.8km/h 62.2% 0.00in /  0mm 0 W/m2
18:39 31 °F /  -0.6 °C 19.2 °F /  -7.1 °C 29.79in /  1008.7hPa NW 8.7mph /  14km/h 22mph /  35.4km/h 61.2% 0.00in /  0mm 0 W/m2
18:44 30.8 °F /  -0.7 °C 18.9 °F /  -7.3 °C 29.80in /  1009hPa NNW 7.3mph /  11.7km/h 22mph /  35.4km/h 61% 0.00in /  0mm 0 W/m2
18:49 30.6 °F /  -0.8 °C 18.5 °F /  -7.5 °C 29.80in /  1009hPa NW 6mph /  9.7km/h 22mph /  35.4km/h 60.4% 0.00in /  0mm 0 W/m2
18:54 30.4 °F /  -0.9 °C 18.3 °F /  -7.6 °C 29.81in /  1009.4hPa NW 7.9mph /  12.7km/h 22mph /  35.4km/h 60.3% 0.00in /  0mm 0 W/m2
18:59 30.2 °F /  -1 °C 17.9 °F /  -7.8 °C 29.81in /  1009.4hPa NNW 7.5mph /  12.1km/h 22mph /  35.4km/h 59.7% 0.00in /  0mm 0 W/m2
19:04 30 °F /  -1.1 °C 17.4 °F /  -8.1 °C 29.81in /  1009.4hPa NNW 6.3mph /  10.1km/h 22mph /  35.4km/h 59% 0.00in /  0mm 0 W/m2
19:09 29.8 °F /  -1.2 °C 17.2 °F /  -8.2 °C 29.82in /  1009.7hPa NNW 8.8mph /  14.2km/h 18mph /  29km/h 58.9% 0.00in /  0mm 0 W/m2
19:14 29.6 °F /  -1.3 °C 16.3 °F /  -8.7 °C 29.82in /  1009.7hPa NNW 8.5mph /  13.7km/h 21mph /  33.8km/h 57.2% 0.00in /  0mm 0 W/m2
19:19 29.3 °F /  -1.5 °C 16 °F /  -8.9 °C 29.82in /  1009.7hPa NNW 10mph /  16.1km/h 21mph /  33.8km/h 57% 0.00in /  0mm 0 W/m2
19:24 29 °F /  -1.7 °C 15.7 °F /  -9.1 °C 29.82in /  1009.7hPa NW 9.8mph /  15.8km/h 21mph /  33.8km/h 57% 0.00in /  0mm 0 W/m2
19:29 28.7 °F /  -1.8 °C 15.2 °F /  -9.3 °C 29.83in /  1010hPa NNW 10.2mph /  16.4km/h 23mph /  37km/h 56.6% 0.00in /  0mm 0 W/m2
19:34 28.3 °F /  -2.1 °C 14.7 °F /  -9.6 °C 29.83in /  1010hPa NW 12mph /  19.3km/h 23mph /  37km/h 56.3% 0.00in /  0mm 0 W/m2
19:39 28 °F /  -2.2 °C 14.6 °F /  -9.7 °C 29.83in /  1010hPa NNW 10.7mph /  17.2km/h 18mph /  29km/h 56.7% 0.00in /  0mm 0 W/m2
19:44 27.7 °F /  -2.4 °C 14.4 °F /  -9.8 °C 29.83in /  1010hPa NNW 10.5mph /  16.9km/h 21mph /  33.8km/h 56.8% 0.00in /  0mm 0 W/m2
19:49 27.4 °F /  -2.6 °C 14 °F /  -10 °C 29.83in /  1010hPa NW 9.4mph /  15.1km/h 21mph /  33.8km/h 56.4% 0.00in /  0mm 0 W/m2
19:54 27.1 °F /  -2.7 °C 13.7 °F /  -10.2 °C 29.84in /  1010.4hPa NNW 11.8mph /  19km/h 23mph /  37km/h 56.5% 0.00in /  0mm 0 W/m2
19:59 26.9 °F /  -2.8 °C 13.3 °F /  -10.4 °C 29.84in /  1010.4hPa NW 11.2mph /  18km/h 23mph /  37km/h 56% 0.00in /  0mm 0 W/m2
20:00 26.7 °F /  -2.9 °C 13.1 °F /  -10.5 °C 29.84in /  1010.4hPa NNW 15.3mph /  24.6km/h 23mph /  37km/h 56% 0.00in /  0mm 0 W/m2
20:09 26.3 °F /  -3.2 °C 12.8 °F /  -10.7 °C 29.84in /  1010.4hPa NNW 12.8mph /  20.6km/h 22mph /  35.4km/h 56% 0.00in /  0mm 0 W/m2
20:14 26.1 °F /  -3.3 °C 12.6 °F /  -10.8 °C 29.84in /  1010.4hPa NNW 9mph /  14.5km/h 22mph /  35.4km/h 56% 0.00in /  0mm 0 W/m2
20:19 25.8 °F /  -3.4 °C 12.3 °F /  -10.9 °C 29.84in /  1010.4hPa NNW 10.1mph /  16.3km/h 22mph /  35.4km/h 56% 0.00in /  0mm 0 W/m2
20:24 25.5 °F /  -3.6 °C 12 °F /  -11.1 °C 29.84in /  1010.4hPa NNW 8.8mph /  14.2km/h 22mph /  35.4km/h 56% 0.00in /  0mm 0 W/m2
20:29 25.2 °F /  -3.8 °C 11.7 °F /  -11.3 °C 29.85in /  1010.7hPa NNW 8.8mph /  14.2km/h 22mph /  35.4km/h 56% 0.00in /  0mm 0 W/m2
20:34 25 °F /  -3.9 °C 11.3 °F /  -11.5 °C 29.85in /  1010.7hPa NNW 11.6mph /  18.7km/h 26mph /  41.8km/h 55.5% 0.00in /  0mm 0 W/m2
20:39 24.7 °F /  -4.1 °C 10.8 °F /  -11.8 °C 29.85in /  1010.7hPa NNW 8.2mph /  13.2km/h 26mph /  41.8km/h 55% 0.00in /  0mm 0 W/m2
20:44 24.4 °F /  -4.2 °C 10.4 °F /  -12 °C 29.85in /  1010.7hPa NW 10.9mph /  17.5km/h 26mph /  41.8km/h 54.7% 0.00in /  0mm 0 W/m2
20:49 24.2 °F /  -4.3 °C 9.9 °F /  -12.3 °C 29.85in /  1010.7hPa NW 9.8mph /  15.8km/h 26mph /  41.8km/h 54% 0.00in /  0mm 0 W/m2
20:54 23.9 °F /  -4.5 °C 9.4 °F /  -12.6 °C 29.84in /  1010.4hPa NNW 12.1mph /  19.5km/h 26mph /  41.8km/h 53.4% 0.00in /  0mm 0 W/m2
20:59 23.7 °F /  -4.6 °C 8.8 °F /  -12.9 °C 29.85in /  1010.7hPa NW 10.8mph /  17.4km/h 26mph /  41.8km/h 52.2% 0.00in /  0mm 0 W/m2
21:04 23.5 °F /  -4.7 °C 8.3 °F /  -13.2 °C 29.85in /  1010.7hPa NNW 9.2mph /  14.8km/h 26mph /  41.8km/h 51.5% 0.00in /  0mm 0 W/m2
21:09 23.3 °F /  -4.8 °C 7.8 °F /  -13.4 °C 29.86in /  1011.1hPa NW 9.5mph /  15.3km/h 21mph /  33.8km/h 50.8% 0.00in /  0mm 0 W/m2
21:14 23.1 °F /  -4.9 °C 7.1 °F /  -13.8 °C 29.86in /  1011.1hPa NNW 12.8mph /  20.6km/h 23mph /  37km/h 49.6% 0.00in /  0mm 0 W/m2
21:19 22.9 °F /  -5.1 °C 6.1 °F /  -14.4 °C 29.86in /  1011.1hPa NNW 11.6mph /  18.7km/h 24mph /  38.6km/h 48% 0.00in /  0mm 0 W/m2
21:24 22.7 °F /  -5.2 °C 5.6 °F /  -14.7 °C 29.86in /  1011.1hPa NNW 10.5mph /  16.9km/h 24mph /  38.6km/h 47.2% 0.00in /  0mm 0 W/m2
21:29 22.5 °F /  -5.3 °C 5.2 °F /  -14.9 °C 29.86in /  1011.1hPa NNW 6.5mph /  10.5km/h 24mph /  38.6km/h 46.9% 0.00in /  0mm 0 W/m2
21:34 22.3 °F /  -5.4 °C 4.9 °F /  -15.1 °C 29.86in /  1011.1hPa NW 10.3mph /  16.6km/h 24mph /  38.6km/h 46.5% 0.00in /  0mm 0 W/m2
21:39 22 °F /  -5.6 °C 3.8 °F /  -15.7 °C 29.87in /  1011.4hPa NNW 9.3mph /  15km/h 23mph /  37km/h 44.6% 0.00in /  0mm 0 W/m2
21:44 21.8 °F /  -5.7 °C 3.2 °F /  -16 °C 29.87in /  1011.4hPa NW 10.9mph /  17.5km/h 23mph /  37km/h 43.8% 0.00in /  0mm 0 W/m2
21:49 21.7 °F /  -5.7 °C 2.7 °F /  -16.3 °C 29.87in /  1011.4hPa NNW 8.9mph /  14.3km/h 23mph /  37km/h 43.1% 0.00in /  0mm 0 W/m2
21:54 21.5 °F /  -5.8 °C 2.7 °F /  -16.3 °C 29.87in /  1011.4hPa NW 5.9mph /  9.5km/h 23mph /  37km/h 43.3% 0.00in /  0mm 0 W/m2
21:59 21.4 °F /  -5.9 °C 2.6 °F /  -16.3 °C 29.87in /  1011.4hPa NW 9.5mph /  15.3km/h 23mph /  37km/h 43.4% 0.00in /  0mm 0 W/m2
22:04 21.2 °F /  -6 °C 2.2 °F /  -16.6 °C 29.87in /  1011.4hPa NNW 8.3mph /  13.4km/h 23mph /  37km/h 43% 0.00in /  0mm 0 W/m2
22:09 21.1 °F /  -6.1 °C 2 °F /  -16.7 °C 29.88in /  1011.7hPa NW 9.8mph /  15.8km/h 25mph /  40.2km/h 42.9% 0.00in /  0mm 0 W/m2
22:14 20.9 °F /  -6.2 °C 1.5 °F /  -16.9 °C 29.88in /  1011.7hPa NW 7.6mph /  12.2km/h 25mph /  40.2km/h 42.1% 0.00in /  0mm 0 W/m2
22:19 20.6 °F /  -6.3 °C 0.9 °F /  -17.3 °C 29.88in /  1011.7hPa NW 8.9mph /  14.3km/h 25mph /  40.2km/h 41.4% 0.00in /  0mm 0 W/m2
22:24 20.4 °F /  -6.4 °C 0.7 °F /  -17.4 °C 29.88in /  1011.7hPa NW 7.7mph /  12.4km/h 25mph /  40.2km/h 41.5% 0.00in /  0mm 0 W/m2
22:29 20.1 °F /  -6.6 °C 0.4 °F /  -17.6 °C 29.89in /  1012.1hPa NW 10.3mph /  16.6km/h 25mph /  40.2km/h 41.4% 0.00in /  0mm 0 W/m2
22:34 19.8 °F /  -6.8 °C 0.1 °F /  -17.7 °C 29.89in /  1012.1hPa NW 8.5mph /  13.7km/h 25mph /  40.2km/h 41.5% 0.00in /  0mm 0 W/m2
22:39 19.4 °F /  -7 °C 0.1 °F /  -17.7 °C 29.89in /  1012.1hPa NW 9.4mph /  15.1km/h 21mph /  33.8km/h 42% 0.00in /  0mm 0 W/m2
22:44 19.2 °F /  -7.1 °C -0.6 °F /  -18.1 °C 29.89in /  1012.1hPa NW 8.3mph /  13.4km/h 21mph /  33.8km/h 41.1% 0.00in /  0mm 0 W/m2
22:49 19 °F /  -7.2 °C -0.6 °F /  -18.1 °C 29.89in /  1012.1hPa NW 6.4mph /  10.3km/h 21mph /  33.8km/h 41.6% 0.00in /  0mm 0 W/m2
22:54 18.8 °F /  -7.3 °C -0.5 °F /  -18.1 °C 29.89in /  1012.1hPa NW 8mph /  12.9km/h 21mph /  33.8km/h 42% 0.00in /  0mm 0 W/m2
22:59 18.6 °F /  -7.4 °C -1.2 °F /  -18.4 °C 29.90in /  1012.4hPa NW 7.3mph /  11.7km/h 21mph /  33.8km/h 41% 0.00in /  0mm 0 W/m2
23:00 18.5 °F /  -7.5 °C -1.3 °F /  -18.5 °C 29.90in /  1012.4hPa NW 10mph /  16.1km/h 21mph /  33.8km/h 41% 0.00in /  0mm 0 W/m2
23:09 18.2 °F /  -7.7 °C -1.5 °F /  -18.6 °C 29.90in /  1012.4hPa NW 10.3mph /  16.6km/h 24mph /  38.6km/h 41% 0.00in /  0mm 0 W/m2
23:14 18.1 °F /  -7.7 °C -1.7 °F /  -18.7 °C 29.90in /  1012.4hPa NW 8.8mph /  14.2km/h 26mph /  41.8km/h 41% 0.00in /  0mm 0 W/m2
23:19 17.9 °F /  -7.8 °C -1.7 °F /  -18.7 °C 29.90in /  1012.4hPa NNW 5.8mph /  9.3km/h 26mph /  41.8km/h 41.2% 0.00in /  0mm 0 W/m2
23:24 17.8 °F /  -7.9 °C -1.4 °F /  -18.6 °C 29.90in /  1012.4hPa NW 7mph /  11.3km/h 26mph /  41.8km/h 42% 0.00in /  0mm 0 W/m2
23:29 17.6 °F /  -8 °C -1.3 °F /  -18.5 °C 29.91in /  1012.8hPa NW 10.9mph /  17.5km/h 26mph /  41.8km/h 42.5% 0.00in /  0mm 0 W/m2
23:34 17.4 °F /  -8.1 °C -1.3 °F /  -18.5 °C 29.91in /  1012.8hPa NW 9.3mph /  15km/h 26mph /  41.8km/h 43% 0.00in /  0mm 0 W/m2
23:39 17.1 °F /  -8.3 °C -1.2 °F /  -18.4 °C 29.91in /  1012.8hPa NW 10.9mph /  17.5km/h 23mph /  37km/h 43.6% 0.00in /  0mm 0 W/m2
23:44 16.7 °F /  -8.5 °C -1.4 °F /  -18.6 °C 29.92in /  1013.1hPa NW 9.2mph /  14.8km/h 23mph /  37km/h 44% 0.00in /  0mm 0 W/m2
23:49 16.4 °F /  -8.7 °C -1.3 °F /  -18.5 °C 29.92in /  1013.1hPa NW 8.8mph /  14.2km/h 23mph /  37km/h 44.8% 0.00in /  0mm 0 W/m2
23:54 16.2 °F /  -8.8 °C -1.5 °F /  -18.6 °C 29.92in /  1013.1hPa NW 10.3mph /  16.6km/h 24mph /  38.6km/h 44.8% 0.00in /  0mm 0 W/m2
23:59 16 °F /  -8.9 °C -1.6 °F /  -18.7 °C 29.92in /  1013.1hPa NW 9.9mph /  15.9km/h 24mph /  38.6km/h 45% 0.00in /  0mm 0 W/m2
Hartford County Weather
Compliments of Weather Underground - 2 mb